createdAt,value
2023-04-30T00:01:48.908Z,3.72
2023-04-30T00:04:16.587Z,4.57
2023-04-30T00:06:43.985Z,4.25
2023-04-30T00:09:11.143Z,4.47
2023-04-30T00:11:41.208Z,4.30
2023-04-30T00:14:08.502Z,3.83
2023-04-30T00:16:35.678Z,4.13
2023-04-30T00:19:02.637Z,4.38
2023-04-30T00:21:30.388Z,4.03
2023-04-30T00:23:57.429Z,3.78
2023-04-30T00:26:24.309Z,3.72
2023-04-30T00:28:51.659Z,3.65
2023-04-30T00:31:18.670Z,3.85
2023-04-30T00:33:45.714Z,3.20
2023-04-30T00:36:12.735Z,3.13
2023-04-30T00:38:40.264Z,3.35
2023-04-30T00:41:07.268Z,3.05
2023-04-30T00:43:34.615Z,3.45
2023-04-30T00:46:03.962Z,3.33
2023-04-30T00:48:31.007Z,3.40
2023-04-30T00:50:57.980Z,3.40
2023-04-30T00:53:26.120Z,2.90
2023-04-30T00:55:54.216Z,3.30
2023-04-30T00:58:22.596Z,3.05
2023-04-30T01:00:49.911Z,2.80
2023-04-30T01:03:17.105Z,3.08
2023-04-30T01:05:44.042Z,2.22
2023-04-30T01:08:11.695Z,3.10
2023-04-30T01:10:48.737Z,2.67
2023-04-30T01:13:29.104Z,2.85
2023-04-30T01:16:19.706Z,2.80
2023-04-30T01:18:56.835Z,3.40
2023-04-30T01:21:24.782Z,3.10
2023-04-30T01:24:24.762Z,4.20
2023-04-30T01:27:01.666Z,3.35
2023-04-30T01:29:30.449Z,3.40
2023-04-30T01:31:57.739Z,2.92
2023-04-30T01:34:24.587Z,4.03
2023-04-30T01:37:16.011Z,4.50
2023-04-30T01:40:16.741Z,2.35
2023-04-30T01:43:08.724Z,2.45
2023-04-30T01:46:13.030Z,2.25
2023-04-30T01:48:58.367Z,3.92
2023-04-30T01:51:43.523Z,3.30
2023-04-30T01:54:38.772Z,3.38
2023-04-30T01:57:10.604Z,3.13
2023-04-30T01:59:40.008Z,3.75
2023-04-30T02:02:07.187Z,2.58
2023-04-30T02:04:34.531Z,2.15
2023-04-30T02:07:01.538Z,2.20
2023-04-30T02:09:28.382Z,1.83
2023-04-30T02:11:55.257Z,2.10
2023-04-30T02:14:22.945Z,2.20
2023-04-30T02:16:49.781Z,2.10
2023-04-30T02:19:16.640Z,2.10
2023-04-30T02:21:43.669Z,2.05
2023-04-30T02:24:10.964Z,2.20
2023-04-30T02:26:37.773Z,1.90
2023-04-30T02:29:04.670Z,2.22
2023-04-30T02:31:32.241Z,2.10
2023-04-30T02:33:59.128Z,1.75
2023-04-30T02:36:26.223Z,1.95
2023-04-30T02:38:53.149Z,1.75
2023-04-30T02:41:20.459Z,1.60
2023-04-30T02:43:47.404Z,1.88
2023-04-30T02:46:14.300Z,1.92
2023-04-30T02:48:41.591Z,1.70
2023-04-30T02:51:09.324Z,1.77
2023-04-30T02:53:36.578Z,2.30
2023-04-30T02:56:03.605Z,1.70
2023-04-30T02:58:30.585Z,1.98
2023-04-30T03:00:57.668Z,2.00
2023-04-30T03:03:24.631Z,1.98
2023-04-30T03:05:51.571Z,1.75
2023-04-30T03:08:18.450Z,1.95
2023-04-30T03:10:45.379Z,1.67
2023-04-30T03:13:12.362Z,1.70
2023-04-30T03:15:39.322Z,1.67
2023-04-30T03:18:07.467Z,2.25
2023-04-30T03:20:34.407Z,1.92
2023-04-30T03:23:01.664Z,1.70
2023-04-30T03:25:28.558Z,1.50
2023-04-30T03:27:55.498Z,1.95
2023-04-30T03:30:22.473Z,1.85
2023-04-30T03:32:49.437Z,1.70
2023-04-30T03:35:16.812Z,1.70
2023-04-30T03:37:44.044Z,1.55
2023-04-30T03:40:11.667Z,1.75
2023-04-30T03:42:38.930Z,1.88
2023-04-30T03:45:06.257Z,1.40
2023-04-30T03:47:33.633Z,1.80
2023-04-30T03:50:00.614Z,1.63
2023-04-30T03:52:27.980Z,1.77
2023-04-30T03:54:54.874Z,1.60
2023-04-30T03:57:22.275Z,2.00
2023-04-30T03:59:50.230Z,2.00
2023-04-30T04:02:17.605Z,2.00
2023-04-30T04:04:45.301Z,1.58
2023-04-30T04:07:13.036Z,1.98
2023-04-30T04:09:40.394Z,1.60
2023-04-30T04:12:07.436Z,1.80
2023-04-30T04:14:34.420Z,1.80
2023-04-30T04:17:02.182Z,1.73
2023-04-30T04:19:29.150Z,1.80
2023-04-30T04:21:56.052Z,2.03
2023-04-30T04:24:25.202Z,1.50
2023-04-30T04:26:53.640Z,1.75
2023-04-30T04:29:20.632Z,1.50
2023-04-30T04:31:49.294Z,1.73
2023-04-30T04:34:16.461Z,2.03
2023-04-30T04:36:43.450Z,1.70
2023-04-30T04:39:11.529Z,1.88
2023-04-30T04:41:38.387Z,2.00
2023-04-30T04:44:05.403Z,1.85
2023-04-30T04:46:33.199Z,2.10
2023-04-30T04:49:00.165Z,2.20
2023-04-30T04:51:27.639Z,1.50
2023-04-30T04:53:54.556Z,2.05
2023-04-30T04:56:21.881Z,1.80
2023-04-30T04:58:49.228Z,1.70
2023-04-30T05:01:16.165Z,1.63
2023-04-30T05:03:43.206Z,1.83
2023-04-30T05:06:10.178Z,2.05
2023-04-30T05:08:38.337Z,2.00
2023-04-30T05:11:05.686Z,2.00
2023-04-30T05:13:33.056Z,2.05
2023-04-30T05:16:00.656Z,2.08
2023-04-30T05:18:27.551Z,2.20
2023-04-30T05:20:54.580Z,2.20
2023-04-30T05:23:21.925Z,2.25
2023-04-30T05:25:53.247Z,2.05
2023-04-30T05:28:20.599Z,2.38
2023-04-30T05:30:47.704Z,2.47
2023-04-30T05:33:14.709Z,2.80
2023-04-30T05:35:41.992Z,2.92
2023-04-30T05:38:08.844Z,2.72
2023-04-30T05:40:35.833Z,2.65
2023-04-30T05:43:03.203Z,2.75
2023-04-30T05:45:30.188Z,2.55
2023-04-30T05:47:57.203Z,2.42
2023-04-30T05:50:24.520Z,3.15
2023-04-30T05:52:51.686Z,3.08
2023-04-30T05:55:18.548Z,3.05
2023-04-30T05:57:45.480Z,3.25
2023-04-30T06:00:13.052Z,3.03
2023-04-30T06:02:39.978Z,3.13
2023-04-30T06:05:08.577Z,3.20
2023-04-30T06:07:35.502Z,3.28
2023-04-30T06:10:02.822Z,3.58
2023-04-30T06:12:29.906Z,3.67
2023-04-30T06:14:57.541Z,4.40
2023-04-30T06:17:24.529Z,4.05
2023-04-30T06:19:51.640Z,4.57
2023-04-30T06:22:18.559Z,3.47
2023-04-30T06:24:45.896Z,3.10
2023-04-30T06:27:13.148Z,3.10
2023-04-30T06:29:40.069Z,3.10
2023-04-30T06:32:08.535Z,3.20
2023-04-30T06:34:36.468Z,3.08
2023-04-30T06:37:03.552Z,3.08
2023-04-30T06:39:30.830Z,3.40
2023-04-30T06:41:57.699Z,2.90
2023-04-30T06:44:24.695Z,2.42
2023-04-30T06:46:51.956Z,3.00
2023-04-30T06:49:18.821Z,3.40
2023-04-30T06:51:45.747Z,2.75
2023-04-30T06:54:12.597Z,2.20
2023-04-30T06:56:39.435Z,1.83
2023-04-30T06:59:06.799Z,2.60
2023-04-30T07:01:33.786Z,2.70
2023-04-30T07:04:01.769Z,2.13
2023-04-30T07:06:28.955Z,2.10
2023-04-30T07:08:55.949Z,1.83
2023-04-30T07:11:23.557Z,1.90
2023-04-30T07:13:50.548Z,1.90
2023-04-30T07:16:17.414Z,2.45
2023-04-30T07:18:44.825Z,1.98
2023-04-30T07:21:11.736Z,1.80
2023-04-30T07:23:38.681Z,2.47
2023-04-30T07:26:07.983Z,2.10
2023-04-30T07:28:35.465Z,2.35
2023-04-30T07:31:02.417Z,3.00
2023-04-30T07:33:30.515Z,2.17
2023-04-30T07:35:58.583Z,1.95
2023-04-30T07:38:25.715Z,1.40
2023-04-30T07:40:52.747Z,1.45
2023-04-30T07:43:20.086Z,1.23
2023-04-30T07:45:49.396Z,0.98
2023-04-30T07:48:19.090Z,1.10
2023-04-30T07:50:49.103Z,0.90
2023-04-30T07:53:17.530Z,1.15
2023-04-30T07:55:44.507Z,1.40
2023-04-30T07:58:11.940Z,0.75
2023-04-30T08:00:38.791Z,0.80
2023-04-30T08:03:05.767Z,0.73
2023-04-30T08:05:32.770Z,0.68
2023-04-30T08:07:59.752Z,0.80
2023-04-30T08:10:26.954Z,1.00
2023-04-30T08:12:53.900Z,1.00
2023-04-30T08:15:21.980Z,1.00
2023-04-30T08:17:52.611Z,0.98
2023-04-30T08:20:19.789Z,0.80
2023-04-30T08:22:46.915Z,0.82
2023-04-30T08:25:14.449Z,1.00
2023-04-30T08:27:41.482Z,0.88
2023-04-30T08:30:09.235Z,1.00
2023-04-30T08:32:37.713Z,0.70
2023-04-30T08:35:05.902Z,1.00
2023-04-30T08:37:32.973Z,0.95
2023-04-30T08:40:00.623Z,0.90
2023-04-30T08:42:37.377Z,0.88
2023-04-30T08:45:05.119Z,0.98
2023-04-30T08:47:32.265Z,1.48
2023-04-30T08:49:59.185Z,1.00
2023-04-30T08:52:28.599Z,1.33
2023-04-30T08:54:57.539Z,1.00
2023-04-30T08:57:24.668Z,1.40
2023-04-30T08:59:51.994Z,1.60
2023-04-30T09:02:18.983Z,1.30
2023-04-30T09:04:49.010Z,1.40
2023-04-30T09:07:18.391Z,1.20
2023-04-30T09:09:45.691Z,1.40
2023-04-30T09:12:19.992Z,1.20
2023-04-30T09:15:00.504Z,1.00
2023-04-30T09:17:27.726Z,1.40
2023-04-30T09:19:54.757Z,1.35
2023-04-30T09:22:24.878Z,1.30
2023-04-30T09:24:53.319Z,1.10
2023-04-30T09:27:23.400Z,1.50
2023-04-30T09:29:50.592Z,1.17
2023-04-30T09:32:17.513Z,2.13
2023-04-30T09:34:45.829Z,4.70
2023-04-30T09:37:13.422Z,2.67
2023-04-30T09:39:58.897Z,2.13
2023-04-30T09:42:25.954Z,2.00
2023-04-30T09:44:54.045Z,2.17
2023-04-30T09:47:21.503Z,1.30
2023-04-30T09:49:54.286Z,1.98
2023-04-30T09:52:21.645Z,1.70
2023-04-30T09:54:49.573Z,1.85
2023-04-30T09:57:17.196Z,1.80
2023-04-30T09:59:46.249Z,1.95
2023-04-30T10:02:16.264Z,1.65
2023-04-30T10:04:44.892Z,1.60
2023-04-30T10:07:22.989Z,1.77
2023-04-30T10:10:03.387Z,1.70
2023-04-30T10:12:50.770Z,1.90
2023-04-30T10:15:33.898Z,1.42
2023-04-30T10:18:05.152Z,1.58
2023-04-30T10:20:39.614Z,1.20
2023-04-30T10:23:07.382Z,0.98
2023-04-30T10:25:34.623Z,1.05
2023-04-30T10:28:04.628Z,0.60
2023-04-30T10:30:32.853Z,0.70
2023-04-30T10:33:17.000Z,0.80
2023-04-30T10:35:49.639Z,0.65
2023-04-30T10:38:30.610Z,0.98
2023-04-30T10:41:01.542Z,1.40
2023-04-30T10:43:33.181Z,0.70
2023-04-30T10:46:00.369Z,0.50
2023-04-30T10:48:28.300Z,0.68
2023-04-30T10:50:59.145Z,1.15
2023-04-30T10:53:28.696Z,1.55
2023-04-30T10:56:00.678Z,1.05
2023-04-30T10:58:31.541Z,1.10
2023-04-30T11:01:12.174Z,0.95
2023-04-30T11:03:43.206Z,0.80
2023-04-30T11:06:20.758Z,0.70
2023-04-30T11:08:47.650Z,0.70
2023-04-30T11:11:21.471Z,1.00
2023-04-30T11:14:01.345Z,0.73
2023-04-30T11:16:34.390Z,0.90
2023-04-30T11:19:13.257Z,0.70
2023-04-30T11:22:05.183Z,1.08
2023-04-30T11:24:51.680Z,0.88
2023-04-30T11:27:24.392Z,0.90
2023-04-30T11:29:55.648Z,0.70
2023-04-30T11:32:26.068Z,0.77
2023-04-30T11:34:54.681Z,0.70
2023-04-30T11:37:37.818Z,0.80
2023-04-30T11:40:06.532Z,0.70
2023-04-30T11:42:35.133Z,0.90
2023-04-30T11:45:10.049Z,1.10
2023-04-30T11:47:50.572Z,1.30
2023-04-30T11:50:19.568Z,1.20
2023-04-30T11:52:51.417Z,1.33
2023-04-30T11:55:21.406Z,1.30
2023-04-30T11:57:50.949Z,0.95
2023-04-30T12:00:19.347Z,1.40
2023-04-30T12:02:48.982Z,1.20
2023-04-30T12:08:07.934Z,1.55
2023-04-30T12:13:20.376Z,1.80
2023-04-30T12:15:59.423Z,1.50
2023-04-30T12:18:27.548Z,1.30
2023-04-30T12:24:05.200Z,1.50
2023-04-30T12:26:40.035Z,1.45
2023-04-30T12:29:18.990Z,2.00
2023-04-30T12:35:07.336Z,1.60
2023-04-30T12:49:28.060Z,1.52
2023-04-30T12:54:40.730Z,1.83
2023-04-30T12:57:12.655Z,1.50
2023-04-30T13:02:39.759Z,1.73
2023-04-30T13:08:09.735Z,1.95
2023-04-30T13:10:37.014Z,1.60
2023-04-30T13:13:04.283Z,2.03
2023-04-30T13:15:45.315Z,1.23
2023-04-30T13:18:19.476Z,1.50
2023-04-30T13:20:46.612Z,2.00
2023-04-30T13:23:13.945Z,2.05
2023-04-30T13:37:00.437Z,1.45
2023-04-30T13:39:27.668Z,1.38
2023-04-30T13:41:54.675Z,1.60
2023-04-30T13:49:49.347Z,1.30
2023-04-30T13:52:50.324Z,1.55
2023-04-30T13:55:17.267Z,1.20
2023-04-30T13:57:44.139Z,1.80
2023-04-30T14:11:12.297Z,1.95
2023-04-30T14:19:27.042Z,1.50
2023-04-30T14:21:53.989Z,1.70
2023-04-30T14:24:20.981Z,1.27
2023-04-30T14:26:47.882Z,1.27
2023-04-30T14:31:50.202Z,1.60
2023-04-30T14:39:57.721Z,2.20
2023-04-30T14:42:24.876Z,1.70
2023-04-30T14:48:32.349Z,1.40
2023-04-30T14:51:01.366Z,1.05
2023-04-30T14:53:28.263Z,1.67
2023-04-30T14:59:41.850Z,1.38
2023-04-30T15:02:09.485Z,1.38
2023-04-30T15:07:49.074Z,1.20
2023-04-30T15:13:15.087Z,1.27
2023-04-30T15:15:42.731Z,1.40
2023-04-30T15:18:10.735Z,1.40
2023-04-30T15:20:38.051Z,1.75
2023-04-30T15:23:37.828Z,1.20
2023-04-30T15:26:37.095Z,1.50
2023-04-30T15:35:59.437Z,1.20
2023-04-30T15:41:47.391Z,1.50
2023-04-30T15:47:17.145Z,1.27
2023-04-30T15:52:54.661Z,1.77
2023-04-30T15:55:21.772Z,1.40
2023-04-30T16:00:24.960Z,1.80
2023-04-30T16:05:56.255Z,1.80
2023-04-30T16:14:12.150Z,1.40
2023-04-30T16:16:39.308Z,1.30
2023-04-30T16:19:09.613Z,1.65
2023-04-30T16:21:38.634Z,1.10
2023-04-30T16:24:06.591Z,1.45
2023-04-30T16:26:36.618Z,1.50
2023-04-30T16:29:04.362Z,1.60
2023-04-30T16:31:31.374Z,2.30
2023-04-30T16:33:58.825Z,1.73
2023-04-30T16:36:26.343Z,1.50
2023-04-30T16:42:07.815Z,1.90
2023-04-30T16:44:34.828Z,1.38
2023-04-30T16:47:01.697Z,1.58
2023-04-30T16:49:28.751Z,1.20
2023-04-30T16:51:57.997Z,1.67
2023-04-30T16:54:25.391Z,1.67
2023-04-30T16:56:52.430Z,1.40
2023-04-30T16:59:19.583Z,1.80
2023-04-30T17:01:49.553Z,2.20
2023-04-30T17:04:17.497Z,2.40
2023-04-30T17:06:44.616Z,2.63
2023-04-30T17:09:11.630Z,2.25
2023-04-30T17:11:38.926Z,2.47
2023-04-30T17:14:06.194Z,2.38
2023-04-30T17:16:33.641Z,1.88
2023-04-30T17:19:03.083Z,2.10
2023-04-30T17:21:30.238Z,2.90
2023-04-30T17:23:57.404Z,3.25
2023-04-30T17:26:25.026Z,3.05
2023-04-30T17:36:58.412Z,3.38
2023-04-30T17:39:25.428Z,4.35
2023-04-30T17:42:40.413Z,3.55
2023-04-30T17:45:07.935Z,2.55
2023-04-30T17:47:34.946Z,3.05
2023-04-30T17:50:08.630Z,3.03
2023-04-30T17:58:33.155Z,3.28
2023-04-30T18:01:04.069Z,3.50
2023-04-30T18:09:05.445Z,3.80
2023-04-30T18:11:33.808Z,4.13
2023-04-30T18:16:36.663Z,4.70
2023-04-30T18:19:04.377Z,4.60
2023-04-30T18:21:32.291Z,4.25
2023-04-30T18:23:59.303Z,4.72
2023-04-30T18:26:26.256Z,4.95
2023-04-30T18:28:53.589Z,4.85
2023-04-30T18:33:56.543Z,4.57
2023-04-30T18:38:59.202Z,4.20
2023-04-30T18:41:27.122Z,3.75
2023-04-30T18:50:22.490Z,4.40
2023-04-30T18:52:49.563Z,4.85
2023-04-30T19:00:37.186Z,4.72
2023-04-30T19:03:04.288Z,4.47
2023-04-30T19:08:07.995Z,4.68
2023-04-30T19:10:36.392Z,4.95
2023-04-30T19:13:04.042Z,4.25
2023-04-30T19:15:30.924Z,4.15
2023-04-30T19:17:58.387Z,4.53
2023-04-30T19:20:25.538Z,5.93
2023-04-30T19:22:53.302Z,5.93
2023-04-30T19:27:55.555Z,6.63
2023-04-30T19:30:22.982Z,7.03
2023-04-30T19:32:49.970Z,6.97
2023-04-30T19:35:17.113Z,4.93
2023-04-30T19:37:44.072Z,4.68
2023-04-30T19:40:11.998Z,5.22
2023-04-30T19:42:40.049Z,4.90
2023-04-30T19:45:09.540Z,4.70
2023-04-30T19:47:38.149Z,4.82
2023-04-30T19:50:06.015Z,5.07
2023-04-30T19:52:32.885Z,5.47
2023-04-30T19:55:00.207Z,4.97
2023-04-30T19:57:28.157Z,5.50
2023-04-30T19:59:55.124Z,4.75
2023-04-30T20:02:22.433Z,5.35
2023-04-30T20:04:49.370Z,4.70
2023-04-30T20:07:16.739Z,4.70
2023-04-30T20:09:43.601Z,4.47
2023-04-30T20:12:10.648Z,4.95
2023-04-30T20:14:40.363Z,4.40
2023-04-30T20:17:07.306Z,4.88
2023-04-30T20:19:34.643Z,7.75
2023-04-30T20:22:03.748Z,17.13
2023-04-30T20:24:30.725Z,8.00
2023-04-30T20:26:59.760Z,6.25
2023-04-30T20:29:27.483Z,4.53
2023-04-30T20:31:54.505Z,4.70
2023-04-30T20:34:24.572Z,3.60
2023-04-30T20:36:52.724Z,4.00
2023-04-30T20:39:19.571Z,4.63
2023-04-30T20:41:48.033Z,4.53
2023-04-30T20:44:14.924Z,5.05
2023-04-30T20:46:45.418Z,7.07
2023-04-30T20:49:14.565Z,7.68
2023-04-30T20:51:41.960Z,6.28
2023-04-30T20:54:09.486Z,6.35
2023-04-30T20:56:36.797Z,6.65
2023-04-30T21:04:34.635Z,5.30
2023-04-30T21:07:02.126Z,4.85
2023-04-30T21:12:07.732Z,4.25
2023-04-30T21:14:35.608Z,4.93
2023-04-30T21:17:02.677Z,4.30
2023-04-30T21:19:30.651Z,4.63
2023-04-30T21:27:18.164Z,3.67
2023-04-30T21:29:45.973Z,4.03
2023-04-30T21:32:15.711Z,3.85
2023-04-30T21:34:44.011Z,3.70
2023-04-30T21:39:46.539Z,4.13
2023-04-30T21:47:47.082Z,4.40
2023-04-30T21:50:14.806Z,4.05
2023-04-30T21:52:41.904Z,4.05
2023-04-30T21:55:09.566Z,5.10
2023-04-30T21:57:36.459Z,5.07
2023-04-30T22:00:06.507Z,4.82
2023-04-30T22:02:33.467Z,4.38
2023-04-30T22:05:01.055Z,4.40
2023-04-30T22:07:28.097Z,4.22
2023-04-30T22:09:55.102Z,4.30
2023-04-30T22:12:25.099Z,4.38
2023-04-30T22:14:55.232Z,4.35
2023-04-30T22:20:09.974Z,5.82
2023-04-30T22:22:37.387Z,6.63
2023-04-30T22:25:05.135Z,6.20
2023-04-30T22:27:32.924Z,6.43
2023-04-30T22:30:00.278Z,5.20
2023-04-30T22:32:27.627Z,5.35
2023-04-30T22:34:54.950Z,5.93
2023-04-30T22:37:22.495Z,5.65
2023-04-30T22:39:52.805Z,4.43
2023-04-30T22:42:22.952Z,4.65
2023-04-30T22:44:50.925Z,5.95
2023-04-30T22:47:18.428Z,5.28
2023-04-30T22:49:45.518Z,4.03
2023-04-30T22:52:12.448Z,4.55
2023-04-30T22:54:40.173Z,4.00
2023-04-30T22:57:07.494Z,3.53
2023-04-30T22:59:34.377Z,3.45
2023-04-30T23:02:01.406Z,3.10
2023-04-30T23:04:28.518Z,3.72
2023-04-30T23:07:05.196Z,3.60
2023-04-30T23:09:32.335Z,3.13
2023-04-30T23:11:59.267Z,3.35
2023-04-30T23:14:26.620Z,3.58
2023-04-30T23:16:54.641Z,3.53
2023-04-30T23:19:21.718Z,3.20
2023-04-30T23:21:49.046Z,3.45
2023-04-30T23:24:16.092Z,3.15
2023-04-30T23:26:42.962Z,3.60
2023-04-30T23:29:10.474Z,3.72
2023-04-30T23:31:38.357Z,3.25
2023-04-30T23:34:05.780Z,3.63
2023-04-30T23:36:33.235Z,3.33
2023-04-30T23:39:00.643Z,3.10
2023-04-30T23:41:27.545Z,2.80
2023-04-30T23:52:12.363Z,2.97
2023-04-30T23:54:39.212Z,3.13
2023-04-30T23:57:06.004Z,3.20
2023-04-30T23:59:33.283Z,3.35
